sensor_id;sensor_type;location;lat;lon;timestamp;temperature;humidity
292;DHT22;23311;48.776;9.162;2023-08-30T00:00:36;13.20;95.50
292;DHT22;23311;48.776;9.162;2023-08-30T00:03:05;13.20;95.50
292;DHT22;23311;48.776;9.162;2023-08-30T00:05:33;13.10;95.50
292;DHT22;23311;48.776;9.162;2023-08-30T00:08:02;13.10;95.50
292;DHT22;23311;48.776;9.162;2023-08-30T00:10:30;13.20;95.50
292;DHT22;23311;48.776;9.162;2023-08-30T00:12:58;13.20;95.50
292;DHT22;23311;48.776;9.162;2023-08-30T00:15:28;13.20;95.50
292;DHT22;23311;48.776;9.162;2023-08-30T00:17:56;13.20;95.50
292;DHT22;23311;48.776;9.162;2023-08-30T00:20:24;13.30;95.50
292;DHT22;23311;48.776;9.162;2023-08-30T00:22:52;13.40;95.50
292;DHT22;23311;48.776;9.162;2023-08-30T00:25:20;13.50;95.50
292;DHT22;23311;48.776;9.162;2023-08-30T00:27:49;13.60;95.50
292;DHT22;23311;48.776;9.162;2023-08-30T00:30:17;13.60;95.50
292;DHT22;23311;48.776;9.162;2023-08-30T00:32:46;13.60;95.50
292;DHT22;23311;48.776;9.162;2023-08-30T00:35:14;13.60;95.50
292;DHT22;23311;48.776;9.162;2023-08-30T00:37:42;13.60;95.50
292;DHT22;23311;48.776;9.162;2023-08-30T00:40:11;13.60;95.50
292;DHT22;23311;48.776;9.162;2023-08-30T00:42:39;13.50;95.50
292;DHT22;23311;48.776;9.162;2023-08-30T00:45:09;13.60;95.50
292;DHT22;23311;48.776;9.162;2023-08-30T00:47:37;13.60;95.50
292;DHT22;23311;48.776;9.162;2023-08-30T00:50:07;13.70;95.50
292;DHT22;23311;48.776;9.162;2023-08-30T00:52:36;13.60;95.50
292;DHT22;23311;48.776;9.162;2023-08-30T00:55:04;13.50;95.50
292;DHT22;23311;48.776;9.162;2023-08-30T00:57:34;13.50;95.50
292;DHT22;23311;48.776;9.162;2023-08-30T01:00:03;13.50;95.50
292;DHT22;23311;48.776;9.162;2023-08-30T01:02:33;13.50;95.50
292;DHT22;23311;48.776;9.162;2023-08-30T01:05:02;13.50;95.50
292;DHT22;23311;48.776;9.162;2023-08-30T01:07:31;13.40;95.50
292;DHT22;23311;48.776;9.162;2023-08-30T01:09:59;13.50;95.50
292;DHT22;23311;48.776;9.162;2023-08-30T01:12:31;13.40;95.50
292;DHT22;23311;48.776;9.162;2023-08-30T01:15:09;13.40;95.50
292;DHT22;23311;48.776;9.162;2023-08-30T01:17:39;13.30;95.50
292;DHT22;23311;48.776;9.162;2023-08-30T01:20:10;13.20;95.50
292;DHT22;23311;48.776;9.162;2023-08-30T01:22:47;13.40;95.50
292;DHT22;23311;48.776;9.162;2023-08-30T01:25:27;13.30;95.50
292;DHT22;23311;48.776;9.162;2023-08-30T01:28:04;13.20;95.50
292;DHT22;23311;48.776;9.162;2023-08-30T01:30:34;13.20;95.50
292;DHT22;23311;48.776;9.162;2023-08-30T01:33:05;13.10;95.50
292;DHT22;23311;48.776;9.162;2023-08-30T01:35:33;13.10;95.50
292;DHT22;23311;48.776;9.162;2023-08-30T01:38:04;13.10;95.50
292;DHT22;23311;48.776;9.162;2023-08-30T01:40:35;13.10;95.50
292;DHT22;23311;48.776;9.162;2023-08-30T01:43:05;13.00;95.50
292;DHT22;23311;48.776;9.162;2023-08-30T01:45:36;12.90;95.50
292;DHT22;23311;48.776;9.162;2023-08-30T01:48:06;12.80;95.50
292;DHT22;23311;48.776;9.162;2023-08-30T01:50:36;12.70;95.50
292;DHT22;23311;48.776;9.162;2023-08-30T01:53:08;12.60;95.50
292;DHT22;23311;48.776;9.162;2023-08-30T01:55:37;12.50;95.50
292;DHT22;23311;48.776;9.162;2023-08-30T01:58:07;12.40;95.50
292;DHT22;23311;48.776;9.162;2023-08-30T02:00:37;12.40;95.50
292;DHT22;23311;48.776;9.162;2023-08-30T02:03:09;12.50;95.50
292;DHT22;23311;48.776;9.162;2023-08-30T02:05:43;12.60;95.50
292;DHT22;23311;48.776;9.162;2023-08-30T02:08:16;12.50;95.50
292;DHT22;23311;48.776;9.162;2023-08-30T02:10:51;12.60;95.50
292;DHT22;23311;48.776;9.162;2023-08-30T02:13:26;12.60;95.50
292;DHT22;23311;48.776;9.162;2023-08-30T02:15:55;12.60;95.50
292;DHT22;23311;48.776;9.162;2023-08-30T02:18:25;12.60;95.50
292;DHT22;23311;48.776;9.162;2023-08-30T02:20:54;12.60;95.50
292;DHT22;23311;48.776;9.162;2023-08-30T02:23:24;12.60;95.50
292;DHT22;23311;48.776;9.162;2023-08-30T02:25:54;12.60;95.50
292;DHT22;23311;48.776;9.162;2023-08-30T02:28:24;12.70;95.50
292;DHT22;23311;48.776;9.162;2023-08-30T02:30:53;12.70;95.50
292;DHT22;23311;48.776;9.162;2023-08-30T02:33:21;12.60;95.50
292;DHT22;23311;48.776;9.162;2023-08-30T02:35:50;12.60;95.50
292;DHT22;23311;48.776;9.162;2023-08-30T02:38:18;12.60;95.50
292;DHT22;23311;48.776;9.162;2023-08-30T02:40:46;12.60;95.50
292;DHT22;23311;48.776;9.162;2023-08-30T02:43:14;12.60;95.50
292;DHT22;23311;48.776;9.162;2023-08-30T02:45:44;12.60;95.50
292;DHT22;23311;48.776;9.162;2023-08-30T02:48:12;12.70;95.50
292;DHT22;23311;48.776;9.162;2023-08-30T02:50:41;12.60;95.50
292;DHT22;23311;48.776;9.162;2023-08-30T02:53:09;12.80;95.50
292;DHT22;23311;48.776;9.162;2023-08-30T02:55:37;13.00;95.50
292;DHT22;23311;48.776;9.162;2023-08-30T02:58:05;12.80;95.50
292;DHT22;23311;48.776;9.162;2023-08-30T03:00:34;12.60;95.50
292;DHT22;23311;48.776;9.162;2023-08-30T03:03:04;12.50;95.50
292;DHT22;23311;48.776;9.162;2023-08-30T03:05:32;12.40;95.50
292;DHT22;23311;48.776;9.162;2023-08-30T03:08:10;12.30;95.50
292;DHT22;23311;48.776;9.162;2023-08-30T03:10:38;12.20;95.50
292;DHT22;23311;48.776;9.162;2023-08-30T03:13:06;12.30;95.50
292;DHT22;23311;48.776;9.162;2023-08-30T03:15:35;12.40;95.50
292;DHT22;23311;48.776;9.162;2023-08-30T03:18:04;12.40;95.50
292;DHT22;23311;48.776;9.162;2023-08-30T03:20:33;12.50;95.50
292;DHT22;23311;48.776;9.162;2023-08-30T03:23:01;12.60;95.50
292;DHT22;23311;48.776;9.162;2023-08-30T03:25:29;12.50;95.50
292;DHT22;23311;48.776;9.162;2023-08-30T03:27:57;12.50;95.50
292;DHT22;23311;48.776;9.162;2023-08-30T03:30:25;12.60;95.50
292;DHT22;23311;48.776;9.162;2023-08-30T03:32:54;12.70;95.50
292;DHT22;23311;48.776;9.162;2023-08-30T03:35:23;12.70;95.50
292;DHT22;23311;48.776;9.162;2023-08-30T03:37:51;12.80;95.50
292;DHT22;23311;48.776;9.162;2023-08-30T03:40:19;12.80;95.50
292;DHT22;23311;48.776;9.162;2023-08-30T03:42:48;12.80;95.50
292;DHT22;23311;48.776;9.162;2023-08-30T03:45:16;12.90;95.50
292;DHT22;23311;48.776;9.162;2023-08-30T03:47:44;12.90;95.50
292;DHT22;23311;48.776;9.162;2023-08-30T03:50:12;12.90;95.50
292;DHT22;23311;48.776;9.162;2023-08-30T03:52:41;12.90;95.50
292;DHT22;23311;48.776;9.162;2023-08-30T03:55:10;13.00;95.50
292;DHT22;23311;48.776;9.162;2023-08-30T03:57:38;13.00;95.50
292;DHT22;23311;48.776;9.162;2023-08-30T04:00:07;13.00;95.50
292;DHT22;23311;48.776;9.162;2023-08-30T04:02:35;13.00;95.50
292;DHT22;23311;48.776;9.162;2023-08-30T04:05:03;13.00;95.50
292;DHT22;23311;48.776;9.162;2023-08-30T04:07:35;13.10;95.50
292;DHT22;23311;48.776;9.162;2023-08-30T04:10:06;13.10;95.50
292;DHT22;23311;48.776;9.162;2023-08-30T04:12:34;13.00;95.50
292;DHT22;23311;48.776;9.162;2023-08-30T04:15:02;13.10;95.50
292;DHT22;23311;48.776;9.162;2023-08-30T04:17:31;13.10;95.50
292;DHT22;23311;48.776;9.162;2023-08-30T04:20:00;13.10;95.50
292;DHT22;23311;48.776;9.162;2023-08-30T04:22:31;13.10;95.50
292;DHT22;23311;48.776;9.162;2023-08-30T04:25:02;13.10;95.50
292;DHT22;23311;48.776;9.162;2023-08-30T04:27:31;13.10;95.50
292;DHT22;23311;48.776;9.162;2023-08-30T04:29:59;13.20;95.50
292;DHT22;23311;48.776;9.162;2023-08-30T04:32:28;13.20;95.50
292;DHT22;23311;48.776;9.162;2023-08-30T04:34:56;13.20;95.50
292;DHT22;23311;48.776;9.162;2023-08-30T04:37:24;13.20;95.50
292;DHT22;23311;48.776;9.162;2023-08-30T04:39:52;13.30;95.50
292;DHT22;23311;48.776;9.162;2023-08-30T04:42:20;13.30;95.50
292;DHT22;23311;48.776;9.162;2023-08-30T04:44:50;13.40;95.50
292;DHT22;23311;48.776;9.162;2023-08-30T04:47:18;13.30;95.50
292;DHT22;23311;48.776;9.162;2023-08-30T04:49:50;13.40;95.50
292;DHT22;23311;48.776;9.162;2023-08-30T04:52:18;13.40;95.50
292;DHT22;23311;48.776;9.162;2023-08-30T04:54:46;13.50;95.50
292;DHT22;23311;48.776;9.162;2023-08-30T04:57:15;13.50;95.50
292;DHT22;23311;48.776;9.162;2023-08-30T04:59:44;13.60;95.50
292;DHT22;23311;48.776;9.162;2023-08-30T05:02:14;13.60;95.50
292;DHT22;23311;48.776;9.162;2023-08-30T05:04:42;13.60;95.50
292;DHT22;23311;48.776;9.162;2023-08-30T05:07:10;13.60;95.50
292;DHT22;23311;48.776;9.162;2023-08-30T05:09:39;13.50;95.50
292;DHT22;23311;48.776;9.162;2023-08-30T05:12:08;13.50;95.50
292;DHT22;23311;48.776;9.162;2023-08-30T05:14:37;13.50;95.50
292;DHT22;23311;48.776;9.162;2023-08-30T05:17:05;13.60;95.50
292;DHT22;23311;48.776;9.162;2023-08-30T05:19:34;13.70;95.50
292;DHT22;23311;48.776;9.162;2023-08-30T05:22:03;13.80;95.50
292;DHT22;23311;48.776;9.162;2023-08-30T05:24:31;13.80;95.50
292;DHT22;23311;48.776;9.162;2023-08-30T05:27:00;13.80;95.50
292;DHT22;23311;48.776;9.162;2023-08-30T05:29:28;13.80;95.50
292;DHT22;23311;48.776;9.162;2023-08-30T05:31:56;13.90;95.50
292;DHT22;23311;48.776;9.162;2023-08-30T05:34:25;13.90;95.50
292;DHT22;23311;48.776;9.162;2023-08-30T05:36:55;14.00;95.50
292;DHT22;23311;48.776;9.162;2023-08-30T05:39:23;14.00;95.50
292;DHT22;23311;48.776;9.162;2023-08-30T05:41:51;14.00;95.50
292;DHT22;23311;48.776;9.162;2023-08-30T05:44:19;14.10;95.50
292;DHT22;23311;48.776;9.162;2023-08-30T05:46:47;14.10;95.50
292;DHT22;23311;48.776;9.162;2023-08-30T05:49:15;14.20;95.50
292;DHT22;23311;48.776;9.162;2023-08-30T05:51:43;14.20;95.50
292;DHT22;23311;48.776;9.162;2023-08-30T05:54:13;14.20;95.50
292;DHT22;23311;48.776;9.162;2023-08-30T05:56:41;14.30;95.50
292;DHT22;23311;48.776;9.162;2023-08-30T05:59:09;14.30;95.50
292;DHT22;23311;48.776;9.162;2023-08-30T06:01:37;14.40;95.50
292;DHT22;23311;48.776;9.162;2023-08-30T06:04:06;14.30;95.50
292;DHT22;23311;48.776;9.162;2023-08-30T06:06:34;14.40;95.50
292;DHT22;23311;48.776;9.162;2023-08-30T06:09:02;14.40;95.50
292;DHT22;23311;48.776;9.162;2023-08-30T06:11:33;14.40;95.50
292;DHT22;23311;48.776;9.162;2023-08-30T06:14:01;14.40;95.50
292;DHT22;23311;48.776;9.162;2023-08-30T06:16:30;14.50;95.50
292;DHT22;23311;48.776;9.162;2023-08-30T06:18:58;14.60;95.50
292;DHT22;23311;48.776;9.162;2023-08-30T06:21:27;14.60;95.50
292;DHT22;23311;48.776;9.162;2023-08-30T06:23:55;14.60;95.50
292;DHT22;23311;48.776;9.162;2023-08-30T06:26:23;14.70;95.50
292;DHT22;23311;48.776;9.162;2023-08-30T06:28:52;14.80;95.50
292;DHT22;23311;48.776;9.162;2023-08-30T06:31:31;14.90;95.50
292;DHT22;23311;48.776;9.162;2023-08-30T06:34:00;15.00;95.50
292;DHT22;23311;48.776;9.162;2023-08-30T06:36:28;14.90;95.50
292;DHT22;23311;48.776;9.162;2023-08-30T06:38:57;14.90;95.50
292;DHT22;23311;48.776;9.162;2023-08-30T06:41:25;15.20;95.50
292;DHT22;23311;48.776;9.162;2023-08-30T06:43:54;15.30;95.50
292;DHT22;23311;48.776;9.162;2023-08-30T06:46:23;15.50;95.50
292;DHT22;23311;48.776;9.162;2023-08-30T06:48:51;15.70;95.50
292;DHT22;23311;48.776;9.162;2023-08-30T06:51:20;15.70;95.50
292;DHT22;23311;48.776;9.162;2023-08-30T06:53:48;15.80;95.50
292;DHT22;23311;48.776;9.162;2023-08-30T06:56:16;15.80;95.50
292;DHT22;23311;48.776;9.162;2023-08-30T06:58:44;15.80;95.50
292;DHT22;23311;48.776;9.162;2023-08-30T07:01:13;15.80;95.50
292;DHT22;23311;48.776;9.162;2023-08-30T07:03:42;15.80;95.50
292;DHT22;23311;48.776;9.162;2023-08-30T07:06:11;15.80;95.50
292;DHT22;23311;48.776;9.162;2023-08-30T07:08:39;15.90;95.50
292;DHT22;23311;48.776;9.162;2023-08-30T07:11:07;15.90;95.50
292;DHT22;23311;48.776;9.162;2023-08-30T07:13:53;15.90;95.50
292;DHT22;23311;48.776;9.162;2023-08-30T07:16:23;15.70;95.50
292;DHT22;23311;48.776;9.162;2023-08-30T07:18:51;15.90;95.50
292;DHT22;23311;48.776;9.162;2023-08-30T07:21:19;15.80;95.50
292;DHT22;23311;48.776;9.162;2023-08-30T07:23:48;15.80;95.50
292;DHT22;23311;48.776;9.162;2023-08-30T07:26:16;15.80;95.50
292;DHT22;23311;48.776;9.162;2023-08-30T07:28:45;15.60;95.50
292;DHT22;23311;48.776;9.162;2023-08-30T07:31:13;15.50;95.50
292;DHT22;23311;48.776;9.162;2023-08-30T07:33:46;15.60;95.50
292;DHT22;23311;48.776;9.162;2023-08-30T07:36:14;15.30;95.50
292;DHT22;23311;48.776;9.162;2023-08-30T07:38:42;15.40;95.50
292;DHT22;23311;48.776;9.162;2023-08-30T07:41:11;15.60;95.50
292;DHT22;23311;48.776;9.162;2023-08-30T07:43:39;15.70;95.50
292;DHT22;23311;48.776;9.162;2023-08-30T07:46:07;15.80;95.50
292;DHT22;23311;48.776;9.162;2023-08-30T07:48:35;15.90;95.50
292;DHT22;23311;48.776;9.162;2023-08-30T07:51:05;15.70;95.50
292;DHT22;23311;48.776;9.162;2023-08-30T07:53:33;15.80;95.50
292;DHT22;23311;48.776;9.162;2023-08-30T07:56:01;15.80;95.50
292;DHT22;23311;48.776;9.162;2023-08-30T07:58:29;16.00;95.50
292;DHT22;23311;48.776;9.162;2023-08-30T08:00:57;16.10;95.50
292;DHT22;23311;48.776;9.162;2023-08-30T08:03:27;16.00;95.50
292;DHT22;23311;48.776;9.162;2023-08-30T08:05:55;15.90;95.50
292;DHT22;23311;48.776;9.162;2023-08-30T08:08:27;16.20;95.50
292;DHT22;23311;48.776;9.162;2023-08-30T08:10:55;16.70;95.50
292;DHT22;23311;48.776;9.162;2023-08-30T08:13:23;16.80;95.50
292;DHT22;23311;48.776;9.162;2023-08-30T08:15:52;16.90;95.50
292;DHT22;23311;48.776;9.162;2023-08-30T08:18:20;17.10;95.50
292;DHT22;23311;48.776;9.162;2023-08-30T08:20:48;17.40;95.50
292;DHT22;23311;48.776;9.162;2023-08-30T08:23:16;17.30;95.50
292;DHT22;23311;48.776;9.162;2023-08-30T08:25:46;17.20;95.50
292;DHT22;23311;48.776;9.162;2023-08-30T08:28:14;17.40;95.50
292;DHT22;23311;48.776;9.162;2023-08-30T08:30:42;17.50;95.50
292;DHT22;23311;48.776;9.162;2023-08-30T08:33:12;17.30;95.50
292;DHT22;23311;48.776;9.162;2023-08-30T08:35:40;17.50;95.50
292;DHT22;23311;48.776;9.162;2023-08-30T08:38:08;17.70;95.50
292;DHT22;23311;48.776;9.162;2023-08-30T08:40:37;17.80;95.50
292;DHT22;23311;48.776;9.162;2023-08-30T08:43:11;18.20;95.50
292;DHT22;23311;48.776;9.162;2023-08-30T08:45:40;18.60;95.50
292;DHT22;23311;48.776;9.162;2023-08-30T08:48:08;18.40;95.50
292;DHT22;23311;48.776;9.162;2023-08-30T08:50:37;19.20;95.50
292;DHT22;23311;48.776;9.162;2023-08-30T08:53:06;19.30;95.50
292;DHT22;23311;48.776;9.162;2023-08-30T08:55:35;19.30;95.50
292;DHT22;23311;48.776;9.162;2023-08-30T08:58:04;19.20;95.50
292;DHT22;23311;48.776;9.162;2023-08-30T09:00:34;19.70;95.50
292;DHT22;23311;48.776;9.162;2023-08-30T09:03:03;19.90;95.50
292;DHT22;23311;48.776;9.162;2023-08-30T09:05:35;19.90;95.50
292;DHT22;23311;48.776;9.162;2023-08-30T09:08:06;20.10;95.50
292;DHT22;23311;48.776;9.162;2023-08-30T09:10:35;20.00;95.50
292;DHT22;23311;48.776;9.162;2023-08-30T09:13:03;19.70;95.50
292;DHT22;23311;48.776;9.162;2023-08-30T09:15:33;19.40;95.50
292;DHT22;23311;48.776;9.162;2023-08-30T09:18:04;20.40;95.50
292;DHT22;23311;48.776;9.162;2023-08-30T09:20:32;21.60;95.50
292;DHT22;23311;48.776;9.162;2023-08-30T09:23:00;22.60;95.50
292;DHT22;23311;48.776;9.162;2023-08-30T09:25:28;22.10;95.50
292;DHT22;23311;48.776;9.162;2023-08-30T09:27:57;21.50;95.50
292;DHT22;23311;48.776;9.162;2023-08-30T09:30:26;22.30;95.50
292;DHT22;23311;48.776;9.162;2023-08-30T09:33:00;22.50;94.20
292;DHT22;23311;48.776;9.162;2023-08-30T09:35:29;22.20;95.50
292;DHT22;23311;48.776;9.162;2023-08-30T09:37:57;23.30;92.90
292;DHT22;23311;48.776;9.162;2023-08-30T09:40:25;23.60;92.20
292;DHT22;23311;48.776;9.162;2023-08-30T09:42:53;23.10;92.10
292;DHT22;23311;48.776;9.162;2023-08-30T09:45:38;21.70;95.50
292;DHT22;23311;48.776;9.162;2023-08-30T09:48:08;22.00;95.40
292;DHT22;23311;48.776;9.162;2023-08-30T09:50:36;22.30;93.40
292;DHT22;23311;48.776;9.162;2023-08-30T09:53:07;22.30;93.90
292;DHT22;23311;48.776;9.162;2023-08-30T09:55:37;23.00;92.60
292;DHT22;23311;48.776;9.162;2023-08-30T09:58:05;23.30;91.20
292;DHT22;23311;48.776;9.162;2023-08-30T10:00:34;23.80;90.30
292;DHT22;23311;48.776;9.162;2023-08-30T10:03:02;23.80;90.10
292;DHT22;23311;48.776;9.162;2023-08-30T10:05:35;22.90;91.30
292;DHT22;23311;48.776;9.162;2023-08-30T10:08:06;23.70;90.10
292;DHT22;23311;48.776;9.162;2023-08-30T10:10:35;24.00;89.10
292;DHT22;23311;48.776;9.162;2023-08-30T10:13:05;24.30;87.30
292;DHT22;23311;48.776;9.162;2023-08-30T10:15:48;24.40;87.10
292;DHT22;23311;48.776;9.162;2023-08-30T10:18:19;24.40;87.00
292;DHT22;23311;48.776;9.162;2023-08-30T10:20:54;25.00;86.10
292;DHT22;23311;48.776;9.162;2023-08-30T10:23:23;25.60;84.30
292;DHT22;23311;48.776;9.162;2023-08-30T10:25:53;25.60;84.50
292;DHT22;23311;48.776;9.162;2023-08-30T10:28:23;25.50;83.00
292;DHT22;23311;48.776;9.162;2023-08-30T10:30:52;25.30;83.20
292;DHT22;23311;48.776;9.162;2023-08-30T10:33:20;25.40;82.80
292;DHT22;23311;48.776;9.162;2023-08-30T10:36:04;25.60;82.20
292;DHT22;23311;48.776;9.162;2023-08-30T10:38:33;25.90;81.30
292;DHT22;23311;48.776;9.162;2023-08-30T10:41:08;26.00;79.70
292;DHT22;23311;48.776;9.162;2023-08-30T10:43:36;26.00;78.00
292;DHT22;23311;48.776;9.162;2023-08-30T10:46:05;25.50;78.80
292;DHT22;23311;48.776;9.162;2023-08-30T10:48:36;25.20;79.70
292;DHT22;23311;48.776;9.162;2023-08-30T10:51:15;25.20;79.70
292;DHT22;23311;48.776;9.162;2023-08-30T10:53:44;24.40;80.80
292;DHT22;23311;48.776;9.162;2023-08-30T10:56:27;24.90;81.00
292;DHT22;23311;48.776;9.162;2023-08-30T10:58:55;25.30;79.00
292;DHT22;23311;48.776;9.162;2023-08-30T11:01:23;25.10;78.20
292;DHT22;23311;48.776;9.162;2023-08-30T11:03:53;23.80;81.40
292;DHT22;23311;48.776;9.162;2023-08-30T11:06:43;23.70;81.90
292;DHT22;23311;48.776;9.162;2023-08-30T11:09:13;24.10;81.50
292;DHT22;23311;48.776;9.162;2023-08-30T11:11:44;23.50;82.40
292;DHT22;23311;48.776;9.162;2023-08-30T11:14:13;23.80;82.60
292;DHT22;23311;48.776;9.162;2023-08-30T11:16:42;23.60;82.40
292;DHT22;23311;48.776;9.162;2023-08-30T11:19:11;22.20;84.70
292;DHT22;23311;48.776;9.162;2023-08-30T11:21:44;22.20;86.30
292;DHT22;23311;48.776;9.162;2023-08-30T11:24:12;22.80;86.00
292;DHT22;23311;48.776;9.162;2023-08-30T11:26:43;23.20;82.00
292;DHT22;23311;48.776;9.162;2023-08-30T11:29:11;23.10;81.20
292;DHT22;23311;48.776;9.162;2023-08-30T11:31:39;23.90;80.40
292;DHT22;23311;48.776;9.162;2023-08-30T11:34:10;24.30;79.20
292;DHT22;23311;48.776;9.162;2023-08-30T11:36:40;24.20;79.30
292;DHT22;23311;48.776;9.162;2023-08-30T11:39:09;22.50;84.10
292;DHT22;23311;48.776;9.162;2023-08-30T11:41:38;21.00;90.40
292;DHT22;23311;48.776;9.162;2023-08-30T11:44:08;20.60;92.90
292;DHT22;23311;48.776;9.162;2023-08-30T11:46:36;20.50;94.20
292;DHT22;23311;48.776;9.162;2023-08-30T11:49:04;20.20;94.70
292;DHT22;23311;48.776;9.162;2023-08-30T11:51:33;19.10;95.50
292;DHT22;23311;48.776;9.162;2023-08-30T11:54:03;19.00;95.50
292;DHT22;23311;48.776;9.162;2023-08-30T11:56:31;18.60;95.50
292;DHT22;23311;48.776;9.162;2023-08-30T11:58:59;17.90;95.50
292;DHT22;23311;48.776;9.162;2023-08-30T12:01:28;17.40;95.50
292;DHT22;23311;48.776;9.162;2023-08-30T12:03:56;17.00;95.50
292;DHT22;23311;48.776;9.162;2023-08-30T12:06:25;16.80;95.50
292;DHT22;23311;48.776;9.162;2023-08-30T12:08:57;16.60;95.50
292;DHT22;23311;48.776;9.162;2023-08-30T12:11:27;16.40;95.50
292;DHT22;23311;48.776;9.162;2023-08-30T12:14:01;16.50;95.50
292;DHT22;23311;48.776;9.162;2023-08-30T12:16:30;16.50;95.50
292;DHT22;23311;48.776;9.162;2023-08-30T12:19:07;16.50;95.50
292;DHT22;23311;48.776;9.162;2023-08-30T12:21:40;16.40;95.50
292;DHT22;23311;48.776;9.162;2023-08-30T12:24:08;16.60;95.50
292;DHT22;23311;48.776;9.162;2023-08-30T12:26:38;16.90;95.50
292;DHT22;23311;48.776;9.162;2023-08-30T12:29:06;17.00;95.50
292;DHT22;23311;48.776;9.162;2023-08-30T12:31:34;17.10;95.50
292;DHT22;23311;48.776;9.162;2023-08-30T12:34:02;17.10;95.50
292;DHT22;23311;48.776;9.162;2023-08-30T12:36:30;17.00;95.50
292;DHT22;23311;48.776;9.162;2023-08-30T12:38:59;17.00;95.50
292;DHT22;23311;48.776;9.162;2023-08-30T12:41:27;17.10;95.50
292;DHT22;23311;48.776;9.162;2023-08-30T12:43:57;17.10;95.50
292;DHT22;23311;48.776;9.162;2023-08-30T12:46:25;17.30;95.50
292;DHT22;23311;48.776;9.162;2023-08-30T12:48:53;17.50;95.50
292;DHT22;23311;48.776;9.162;2023-08-30T12:51:25;17.50;95.50
292;DHT22;23311;48.776;9.162;2023-08-30T12:53:53;17.50;95.50
292;DHT22;23311;48.776;9.162;2023-08-30T12:56:21;17.70;95.50
292;DHT22;23311;48.776;9.162;2023-08-30T12:58:49;17.90;95.50
292;DHT22;23311;48.776;9.162;2023-08-30T13:01:19;18.10;95.50
292;DHT22;23311;48.776;9.162;2023-08-30T13:03:47;18.20;95.50
292;DHT22;23311;48.776;9.162;2023-08-30T13:06:15;18.20;95.50
292;DHT22;23311;48.776;9.162;2023-08-30T13:08:43;18.40;95.50
292;DHT22;23311;48.776;9.162;2023-08-30T13:11:12;18.80;95.50
292;DHT22;23311;48.776;9.162;2023-08-30T13:13:40;19.40;95.50
292;DHT22;23311;48.776;9.162;2023-08-30T13:16:08;19.60;95.50
292;DHT22;23311;48.776;9.162;2023-08-30T13:18:37;20.40;95.50
292;DHT22;23311;48.776;9.162;2023-08-30T13:21:05;20.20;95.50
292;DHT22;23311;48.776;9.162;2023-08-30T13:23:34;20.50;95.50
292;DHT22;23311;48.776;9.162;2023-08-30T13:26:02;20.40;95.50
292;DHT22;23311;48.776;9.162;2023-08-30T13:28:30;21.00;95.50
292;DHT22;23311;48.776;9.162;2023-08-30T13:30:58;21.20;95.50
292;DHT22;23311;48.776;9.162;2023-08-30T13:33:28;21.70;95.50
292;DHT22;23311;48.776;9.162;2023-08-30T13:35:58;21.00;95.50
292;DHT22;23311;48.776;9.162;2023-08-30T13:38:26;21.30;95.50
292;DHT22;23311;48.776;9.162;2023-08-30T13:40:58;22.30;94.40
292;DHT22;23311;48.776;9.162;2023-08-30T13:43:26;23.00;93.00
292;DHT22;23311;48.776;9.162;2023-08-30T13:45:58;23.70;90.10
292;DHT22;23311;48.776;9.162;2023-08-30T13:48:26;23.80;86.30
292;DHT22;23311;48.776;9.162;2023-08-30T13:50:54;23.70;87.90
292;DHT22;23311;48.776;9.162;2023-08-30T13:53:24;24.30;87.00
292;DHT22;23311;48.776;9.162;2023-08-30T13:55:52;24.20;86.80
292;DHT22;23311;48.776;9.162;2023-08-30T13:58:21;24.10;87.10
292;DHT22;23311;48.776;9.162;2023-08-30T14:00:49;24.60;85.30
292;DHT22;23311;48.776;9.162;2023-08-30T14:03:17;23.90;85.00
292;DHT22;23311;48.776;9.162;2023-08-30T14:05:45;23.60;86.30
292;DHT22;23311;48.776;9.162;2023-08-30T14:08:13;23.40;87.40
292;DHT22;23311;48.776;9.162;2023-08-30T14:10:43;23.00;89.30
292;DHT22;23311;48.776;9.162;2023-08-30T14:13:11;22.60;87.70
292;DHT22;23311;48.776;9.162;2023-08-30T14:15:40;22.50;88.40
292;DHT22;23311;48.776;9.162;2023-08-30T14:18:09;22.30;88.90
292;DHT22;23311;48.776;9.162;2023-08-30T14:20:38;21.90;89.50
292;DHT22;23311;48.776;9.162;2023-08-30T14:23:06;22.00;90.10
292;DHT22;23311;48.776;9.162;2023-08-30T14:25:35;21.90;89.50
292;DHT22;23311;48.776;9.162;2023-08-30T14:28:05;21.70;90.40
292;DHT22;23311;48.776;9.162;2023-08-30T14:30:33;21.80;90.80
292;DHT22;23311;48.776;9.162;2023-08-30T14:33:02;21.80;90.30
292;DHT22;23311;48.776;9.162;2023-08-30T14:35:30;21.50;91.40
292;DHT22;23311;48.776;9.162;2023-08-30T14:37:58;21.30;92.30
292;DHT22;23311;48.776;9.162;2023-08-30T14:40:27;21.10;92.90
292;DHT22;23311;48.776;9.162;2023-08-30T14:42:55;20.80;94.00
292;DHT22;23311;48.776;9.162;2023-08-30T14:45:25;20.40;95.50
292;DHT22;23311;48.776;9.162;2023-08-30T14:47:53;20.10;95.50
292;DHT22;23311;48.776;9.162;2023-08-30T14:50:21;19.90;95.50
292;DHT22;23311;48.776;9.162;2023-08-30T14:52:50;19.50;95.50
292;DHT22;23311;48.776;9.162;2023-08-30T14:55:21;19.20;95.50
292;DHT22;23311;48.776;9.162;2023-08-30T14:57:51;19.00;95.50
292;DHT22;23311;48.776;9.162;2023-08-30T15:00:20;18.80;95.50
292;DHT22;23311;48.776;9.162;2023-08-30T15:02:50;18.60;95.50
292;DHT22;23311;48.776;9.162;2023-08-30T15:05:18;18.50;95.50
292;DHT22;23311;48.776;9.162;2023-08-30T15:07:46;18.60;95.50
292;DHT22;23311;48.776;9.162;2023-08-30T15:10:14;18.80;95.50
292;DHT22;23311;48.776;9.162;2023-08-30T15:12:42;19.00;95.50
292;DHT22;23311;48.776;9.162;2023-08-30T15:15:11;19.20;95.50
292;DHT22;23311;48.776;9.162;2023-08-30T15:17:39;19.60;95.50
292;DHT22;23311;48.776;9.162;2023-08-30T15:20:09;19.80;95.50
292;DHT22;23311;48.776;9.162;2023-08-30T15:22:37;20.10;95.50
292;DHT22;23311;48.776;9.162;2023-08-30T15:25:06;20.40;95.50
292;DHT22;23311;48.776;9.162;2023-08-30T15:27:34;20.50;95.50
292;DHT22;23311;48.776;9.162;2023-08-30T15:30:03;20.80;95.50
292;DHT22;23311;48.776;9.162;2023-08-30T15:32:31;21.00;95.50
292;DHT22;23311;48.776;9.162;2023-08-30T15:35:00;21.50;95.50
292;DHT22;23311;48.776;9.162;2023-08-30T15:37:29;22.00;95.50
292;DHT22;23311;48.776;9.162;2023-08-30T15:39:59;22.00;95.50
292;DHT22;23311;48.776;9.162;2023-08-30T15:42:31;21.60;95.50
292;DHT22;23311;48.776;9.162;2023-08-30T15:45:00;21.10;95.50
292;DHT22;23311;48.776;9.162;2023-08-30T15:47:29;21.10;95.50
292;DHT22;23311;48.776;9.162;2023-08-30T15:49:57;21.30;95.50
292;DHT22;23311;48.776;9.162;2023-08-30T15:52:25;21.10;95.50
292;DHT22;23311;48.776;9.162;2023-08-30T15:54:54;21.10;95.50
292;DHT22;23311;48.776;9.162;2023-08-30T15:57:23;21.40;95.50
292;DHT22;23311;48.776;9.162;2023-08-30T15:59:51;21.60;95.50
292;DHT22;23311;48.776;9.162;2023-08-30T16:02:19;21.50;95.50
292;DHT22;23311;48.776;9.162;2023-08-30T16:04:48;21.20;95.50
292;DHT22;23311;48.776;9.162;2023-08-30T16:07:16;21.40;95.50
292;DHT22;23311;48.776;9.162;2023-08-30T16:09:44;21.30;95.50
292;DHT22;23311;48.776;9.162;2023-08-30T16:12:16;21.20;95.10
292;DHT22;23311;48.776;9.162;2023-08-30T16:14:44;21.00;95.20